sensor_id;sensor_type;location;lat;lon;timestamp;P1;durP1;ratioP1;P2;durP2;ratioP2
74791;SDS011;63319;46.046;17.802;2023-02-02T00:01:00;24.83;;;15.55;;
74791;SDS011;63319;46.046;17.802;2023-02-02T00:04:03;28.95;;;17.67;;
74791;SDS011;63319;46.046;17.802;2023-02-02T00:07:07;24.67;;;16.58;;
74791;SDS011;63319;46.046;17.802;2023-02-02T00:10:10;27.13;;;17.90;;
74791;SDS011;63319;46.046;17.802;2023-02-02T00:13:13;26.33;;;16.43;;
74791;SDS011;63319;46.046;17.802;2023-02-02T00:19:28;25.15;;;16.42;;
74791;SDS011;63319;46.046;17.802;2023-02-02T00:22:32;25.55;;;16.63;;
74791;SDS011;63319;46.046;17.802;2023-02-02T00:25:35;27.38;;;16.55;;
74791;SDS011;63319;46.046;17.802;2023-02-02T00:28:38;27.43;;;16.20;;
74791;SDS011;63319;46.046;17.802;2023-02-02T00:31:41;24.15;;;15.40;;
74791;SDS011;63319;46.046;17.802;2023-02-02T00:34:44;26.73;;;16.65;;
74791;SDS011;63319;46.046;17.802;2023-02-02T00:37:47;23.83;;;15.45;;
74791;SDS011;63319;46.046;17.802;2023-02-02T00:40:50;25.00;;;16.63;;
74791;SDS011;63319;46.046;17.802;2023-02-02T00:43:53;23.27;;;14.73;;
74791;SDS011;63319;46.046;17.802;2023-02-02T00:47:15;24.45;;;15.27;;
74791;SDS011;63319;46.046;17.802;2023-02-02T00:50:25;24.27;;;16.25;;
74791;SDS011;63319;46.046;17.802;2023-02-02T00:53:28;25.15;;;15.30;;
74791;SDS011;63319;46.046;17.802;2023-02-02T00:56:31;22.58;;;15.65;;
74791;SDS011;63319;46.046;17.802;2023-02-02T00:59:34;24.17;;;15.50;;
74791;SDS011;63319;46.046;17.802;2023-02-02T01:02:37;25.80;;;16.00;;
74791;SDS011;63319;46.046;17.802;2023-02-02T01:05:40;25.10;;;17.15;;
74791;SDS011;63319;46.046;17.802;2023-02-02T01:08:44;24.88;;;16.00;;
74791;SDS011;63319;46.046;17.802;2023-02-02T01:11:47;23.80;;;14.95;;
74791;SDS011;63319;46.046;17.802;2023-02-02T01:14:50;23.57;;;15.50;;
74791;SDS011;63319;46.046;17.802;2023-02-02T01:17:53;26.02;;;16.20;;
74791;SDS011;63319;46.046;17.802;2023-02-02T01:20:59;24.33;;;16.10;;
74791;SDS011;63319;46.046;17.802;2023-02-02T01:24:03;24.95;;;15.75;;
74791;SDS011;63319;46.046;17.802;2023-02-02T01:27:06;25.80;;;16.65;;
74791;SDS011;63319;46.046;17.802;2023-02-02T01:30:09;23.90;;;16.03;;
74791;SDS011;63319;46.046;17.802;2023-02-02T01:33:12;27.40;;;16.40;;
74791;SDS011;63319;46.046;17.802;2023-02-02T01:36:16;26.48;;;16.33;;
74791;SDS011;63319;46.046;17.802;2023-02-02T01:39:22;25.30;;;15.90;;
74791;SDS011;63319;46.046;17.802;2023-02-02T01:42:25;24.67;;;15.85;;
74791;SDS011;63319;46.046;17.802;2023-02-02T01:45:28;25.93;;;15.93;;
74791;SDS011;63319;46.046;17.802;2023-02-02T01:48:31;28.73;;;17.08;;
74791;SDS011;63319;46.046;17.802;2023-02-02T01:51:40;25.35;;;16.50;;
74791;SDS011;63319;46.046;17.802;2023-02-02T01:54:48;25.80;;;15.88;;
74791;SDS011;63319;46.046;17.802;2023-02-02T01:57:59;25.30;;;15.15;;
74791;SDS011;63319;46.046;17.802;2023-02-02T02:01:03;24.17;;;15.07;;
74791;SDS011;63319;46.046;17.802;2023-02-02T02:04:07;25.55;;;15.85;;
74791;SDS011;63319;46.046;17.802;2023-02-02T02:07:11;27.58;;;17.42;;
74791;SDS011;63319;46.046;17.802;2023-02-02T02:10:15;25.75;;;16.15;;
74791;SDS011;63319;46.046;17.802;2023-02-02T02:13:21;24.75;;;16.33;;
74791;SDS011;63319;46.046;17.802;2023-02-02T02:37:15;26.95;;;16.88;;
74791;SDS011;63319;46.046;17.802;2023-02-02T02:40:43;25.83;;;17.00;;
74791;SDS011;63319;46.046;17.802;2023-02-02T02:43:55;25.55;;;16.58;;
74791;SDS011;63319;46.046;17.802;2023-02-02T02:47:01;25.42;;;16.15;;
74791;SDS011;63319;46.046;17.802;2023-02-02T02:50:05;24.73;;;15.23;;
74791;SDS011;63319;46.046;17.802;2023-02-02T02:53:14;26.27;;;15.93;;
74791;SDS011;63319;46.046;17.802;2023-02-02T02:56:30;25.65;;;15.43;;
74791;SDS011;63319;46.046;17.802;2023-02-02T03:03:32;28.55;;;16.48;;
74791;SDS011;63319;46.046;17.802;2023-02-02T03:06:51;25.87;;;15.40;;
74791;SDS011;63319;46.046;17.802;2023-02-02T03:09:58;25.35;;;15.93;;
74791;SDS011;63319;46.046;17.802;2023-02-02T03:13:07;26.58;;;17.40;;
74791;SDS011;63319;46.046;17.802;2023-02-02T03:16:13;27.27;;;15.85;;
74791;SDS011;63319;46.046;17.802;2023-02-02T03:19:17;24.08;;;16.20;;
74791;SDS011;63319;46.046;17.802;2023-02-02T03:22:20;22.40;;;15.37;;
74791;SDS011;63319;46.046;17.802;2023-02-02T03:25:23;26.70;;;16.13;;
74791;SDS011;63319;46.046;17.802;2023-02-02T03:28:26;25.60;;;15.70;;
74791;SDS011;63319;46.046;17.802;2023-02-02T03:31:29;26.15;;;15.82;;
74791;SDS011;63319;46.046;17.802;2023-02-02T03:34:32;25.48;;;15.88;;
74791;SDS011;63319;46.046;17.802;2023-02-02T03:37:35;24.53;;;15.70;;
74791;SDS011;63319;46.046;17.802;2023-02-02T03:40:39;25.00;;;15.30;;
74791;SDS011;63319;46.046;17.802;2023-02-02T03:43:43;24.48;;;15.70;;
74791;SDS011;63319;46.046;17.802;2023-02-02T03:46:46;23.30;;;14.93;;
74791;SDS011;63319;46.046;17.802;2023-02-02T03:49:50;27.52;;;16.98;;
74791;SDS011;63319;46.046;17.802;2023-02-02T03:52:53;24.07;;;15.03;;
74791;SDS011;63319;46.046;17.802;2023-02-02T03:55:56;24.55;;;15.43;;
74791;SDS011;63319;46.046;17.802;2023-02-02T03:58:59;26.48;;;15.60;;
74791;SDS011;63319;46.046;17.802;2023-02-02T04:02:02;23.50;;;14.98;;
74791;SDS011;63319;46.046;17.802;2023-02-02T04:05:05;24.65;;;15.43;;
74791;SDS011;63319;46.046;17.802;2023-02-02T04:08:08;21.73;;;14.77;;
74791;SDS011;63319;46.046;17.802;2023-02-02T04:11:11;22.20;;;14.27;;
74791;SDS011;63319;46.046;17.802;2023-02-02T04:14:14;24.85;;;15.50;;
74791;SDS011;63319;46.046;17.802;2023-02-02T04:17:17;22.90;;;14.52;;
74791;SDS011;63319;46.046;17.802;2023-02-02T04:20:19;21.88;;;13.80;;
74791;SDS011;63319;46.046;17.802;2023-02-02T04:23:22;26.60;;;14.83;;
74791;SDS011;63319;46.046;17.802;2023-02-02T04:26:25;22.98;;;14.27;;
74791;SDS011;63319;46.046;17.802;2023-02-02T04:29:31;24.23;;;15.27;;
74791;SDS011;63319;46.046;17.802;2023-02-02T04:32:37;21.85;;;13.75;;
74791;SDS011;63319;46.046;17.802;2023-02-02T04:35:41;22.30;;;14.20;;
74791;SDS011;63319;46.046;17.802;2023-02-02T04:38:47;21.80;;;13.80;;
74791;SDS011;63319;46.046;17.802;2023-02-02T04:41:51;23.33;;;13.98;;
74791;SDS011;63319;46.046;17.802;2023-02-02T04:44:53;21.40;;;14.18;;
74791;SDS011;63319;46.046;17.802;2023-02-02T04:47:56;23.33;;;13.95;;
74791;SDS011;63319;46.046;17.802;2023-02-02T04:50:59;20.50;;;13.82;;
74791;SDS011;63319;46.046;17.802;2023-02-02T04:54:04;20.13;;;12.70;;
74791;SDS011;63319;46.046;17.802;2023-02-02T04:57:07;21.23;;;13.55;;
74791;SDS011;63319;46.046;17.802;2023-02-02T05:00:10;20.70;;;13.55;;
74791;SDS011;63319;46.046;17.802;2023-02-02T05:03:14;22.30;;;13.43;;
74791;SDS011;63319;46.046;17.802;2023-02-02T05:06:17;21.92;;;13.02;;
74791;SDS011;63319;46.046;17.802;2023-02-02T05:09:21;19.63;;;12.73;;
74791;SDS011;63319;46.046;17.802;2023-02-02T05:12:24;21.77;;;13.35;;
74791;SDS011;63319;46.046;17.802;2023-02-02T05:15:27;20.92;;;13.85;;
74791;SDS011;63319;46.046;17.802;2023-02-02T05:18:31;20.60;;;13.00;;
74791;SDS011;63319;46.046;17.802;2023-02-02T05:21:35;19.52;;;13.68;;
74791;SDS011;63319;46.046;17.802;2023-02-02T05:24:37;20.23;;;12.70;;
74791;SDS011;63319;46.046;17.802;2023-02-02T05:27:43;19.80;;;12.93;;
74791;SDS011;63319;46.046;17.802;2023-02-02T05:30:48;19.85;;;13.95;;
74791;SDS011;63319;46.046;17.802;2023-02-02T05:33:51;19.70;;;12.70;;
74791;SDS011;63319;46.046;17.802;2023-02-02T05:36:54;20.60;;;13.88;;
74791;SDS011;63319;46.046;17.802;2023-02-02T05:39:57;19.43;;;13.30;;
74791;SDS011;63319;46.046;17.802;2023-02-02T05:42:59;19.98;;;12.15;;
74791;SDS011;63319;46.046;17.802;2023-02-02T05:46:07;20.55;;;12.77;;
74791;SDS011;63319;46.046;17.802;2023-02-02T05:49:12;18.80;;;12.00;;
74791;SDS011;63319;46.046;17.802;2023-02-02T05:52:17;19.48;;;12.88;;
74791;SDS011;63319;46.046;17.802;2023-02-02T05:55:23;19.03;;;11.87;;
74791;SDS011;63319;46.046;17.802;2023-02-02T05:58:27;19.48;;;12.18;;
74791;SDS011;63319;46.046;17.802;2023-02-02T06:01:29;18.15;;;12.18;;
74791;SDS011;63319;46.046;17.802;2023-02-02T06:04:32;17.67;;;11.48;;
74791;SDS011;63319;46.046;17.802;2023-02-02T06:07:35;17.52;;;11.48;;
74791;SDS011;63319;46.046;17.802;2023-02-02T06:10:40;17.73;;;11.27;;
74791;SDS011;63319;46.046;17.802;2023-02-02T06:13:46;18.55;;;12.07;;
74791;SDS011;63319;46.046;17.802;2023-02-02T06:16:49;20.23;;;12.10;;
74791;SDS011;63319;46.046;17.802;2023-02-02T06:19:51;17.90;;;11.32;;
74791;SDS011;63319;46.046;17.802;2023-02-02T06:22:54;17.13;;;11.80;;
74791;SDS011;63319;46.046;17.802;2023-02-02T06:26:00;19.17;;;12.33;;
74791;SDS011;63319;46.046;17.802;2023-02-02T06:29:04;18.67;;;11.82;;
74791;SDS011;63319;46.046;17.802;2023-02-02T06:32:08;16.83;;;11.35;;
74791;SDS011;63319;46.046;17.802;2023-02-02T06:35:11;18.77;;;11.88;;
74791;SDS011;63319;46.046;17.802;2023-02-02T06:38:13;17.63;;;11.90;;
74791;SDS011;63319;46.046;17.802;2023-02-02T06:41:17;18.53;;;11.30;;
74791;SDS011;63319;46.046;17.802;2023-02-02T06:44:22;17.95;;;11.82;;
74791;SDS011;63319;46.046;17.802;2023-02-02T06:47:25;17.77;;;11.18;;
74791;SDS011;63319;46.046;17.802;2023-02-02T06:50:28;17.40;;;11.43;;
74791;SDS011;63319;46.046;17.802;2023-02-02T06:53:32;20.92;;;12.40;;
74791;SDS011;63319;46.046;17.802;2023-02-02T06:56:35;18.13;;;11.73;;
74791;SDS011;63319;46.046;17.802;2023-02-02T06:59:38;17.58;;;11.55;;
74791;SDS011;63319;46.046;17.802;2023-02-02T07:02:45;17.55;;;11.20;;
74791;SDS011;63319;46.046;17.802;2023-02-02T07:05:48;18.55;;;11.48;;
74791;SDS011;63319;46.046;17.802;2023-02-02T07:08:51;17.95;;;11.63;;
74791;SDS011;63319;46.046;17.802;2023-02-02T07:12:04;18.97;;;11.77;;
74791;SDS011;63319;46.046;17.802;2023-02-02T07:15:07;17.98;;;11.18;;
74791;SDS011;63319;46.046;17.802;2023-02-02T07:18:11;19.88;;;11.38;;
74791;SDS011;63319;46.046;17.802;2023-02-02T07:21:18;18.50;;;11.65;;
74791;SDS011;63319;46.046;17.802;2023-02-02T07:24:23;17.88;;;10.80;;
74791;SDS011;63319;46.046;17.802;2023-02-02T07:27:26;17.43;;;10.30;;
74791;SDS011;63319;46.046;17.802;2023-02-02T07:30:28;17.60;;;10.70;;
74791;SDS011;63319;46.046;17.802;2023-02-02T07:33:31;17.02;;;11.18;;
74791;SDS011;63319;46.046;17.802;2023-02-02T07:36:39;16.58;;;10.13;;
74791;SDS011;63319;46.046;17.802;2023-02-02T07:39:42;15.70;;;10.40;;
74791;SDS011;63319;46.046;17.802;2023-02-02T07:42:46;16.57;;;10.30;;
74791;SDS011;63319;46.046;17.802;2023-02-02T07:45:50;15.60;;;9.93;;
74791;SDS011;63319;46.046;17.802;2023-02-02T07:48:53;16.30;;;10.07;;
74791;SDS011;63319;46.046;17.802;2023-02-02T07:51:57;17.92;;;9.38;;
74791;SDS011;63319;46.046;17.802;2023-02-02T07:55:00;14.98;;;10.00;;
74791;SDS011;63319;46.046;17.802;2023-02-02T07:58:16;14.73;;;9.40;;
74791;SDS011;63319;46.046;17.802;2023-02-02T08:01:19;15.15;;;9.20;;
74791;SDS011;63319;46.046;17.802;2023-02-02T08:04:34;14.98;;;9.27;;
74791;SDS011;63319;46.046;17.802;2023-02-02T08:07:37;15.52;;;9.10;;
74791;SDS011;63319;46.046;17.802;2023-02-02T08:10:45;15.20;;;9.52;;
74791;SDS011;63319;46.046;17.802;2023-02-02T08:13:57;18.50;;;9.43;;
74791;SDS011;63319;46.046;17.802;2023-02-02T08:17:02;15.10;;;9.20;;
74791;SDS011;63319;46.046;17.802;2023-02-02T08:20:05;14.50;;;9.60;;
74791;SDS011;63319;46.046;17.802;2023-02-02T08:23:09;15.55;;;8.77;;
74791;SDS011;63319;46.046;17.802;2023-02-02T08:26:18;17.38;;;9.60;;
74791;SDS011;63319;46.046;17.802;2023-02-02T08:29:44;13.27;;;8.57;;
74791;SDS011;63319;46.046;17.802;2023-02-02T08:32:47;15.27;;;8.55;;
74791;SDS011;63319;46.046;17.802;2023-02-02T08:35:50;14.07;;;8.98;;
74791;SDS011;63319;46.046;17.802;2023-02-02T08:38:53;13.40;;;8.45;;
74791;SDS011;63319;46.046;17.802;2023-02-02T08:41:56;14.95;;;8.45;;
74791;SDS011;63319;46.046;17.802;2023-02-02T08:45:00;13.27;;;8.50;;
74791;SDS011;63319;46.046;17.802;2023-02-02T08:48:23;14.02;;;8.15;;
74791;SDS011;63319;46.046;17.802;2023-02-02T08:51:27;14.27;;;9.07;;
74791;SDS011;63319;46.046;17.802;2023-02-02T08:54:31;13.30;;;8.23;;
74791;SDS011;63319;46.046;17.802;2023-02-02T08:57:37;14.20;;;8.13;;
74791;SDS011;63319;46.046;17.802;2023-02-02T09:00:40;14.83;;;8.13;;
74791;SDS011;63319;46.046;17.802;2023-02-02T09:03:43;13.77;;;7.80;;
74791;SDS011;63319;46.046;17.802;2023-02-02T09:06:48;15.63;;;8.48;;
74791;SDS011;63319;46.046;17.802;2023-02-02T09:09:51;14.60;;;8.13;;
74791;SDS011;63319;46.046;17.802;2023-02-02T09:12:57;15.95;;;8.63;;
74791;SDS011;63319;46.046;17.802;2023-02-02T09:16:01;16.30;;;7.70;;
74791;SDS011;63319;46.046;17.802;2023-02-02T09:19:05;13.23;;;7.38;;
74791;SDS011;63319;46.046;17.802;2023-02-02T09:22:08;14.95;;;8.27;;
74791;SDS011;63319;46.046;17.802;2023-02-02T09:25:11;12.07;;;6.93;;
74791;SDS011;63319;46.046;17.802;2023-02-02T09:28:15;12.30;;;6.90;;
74791;SDS011;63319;46.046;17.802;2023-02-02T09:31:18;11.43;;;6.70;;
74791;SDS011;63319;46.046;17.802;2023-02-02T09:34:27;13.60;;;7.68;;
74791;SDS011;63319;46.046;17.802;2023-02-02T09:37:35;11.75;;;6.75;;
74791;SDS011;63319;46.046;17.802;2023-02-02T09:40:39;14.80;;;7.13;;
74791;SDS011;63319;46.046;17.802;2023-02-02T09:47:21;10.30;;;6.00;;
74791;SDS011;63319;46.046;17.802;2023-02-02T09:50:37;18.75;;;5.75;;
74791;SDS011;63319;46.046;17.802;2023-02-02T09:53:59;10.38;;;5.78;;
74791;SDS011;63319;46.046;17.802;2023-02-02T09:57:15;10.15;;;5.40;;
74791;SDS011;63319;46.046;17.802;2023-02-02T10:09:47;9.73;;;5.63;;
74791;SDS011;63319;46.046;17.802;2023-02-02T10:13:22;11.38;;;5.88;;
74791;SDS011;63319;46.046;17.802;2023-02-02T10:16:34;11.57;;;5.90;;
74791;SDS011;63319;46.046;17.802;2023-02-02T10:19:41;11.80;;;5.63;;
74791;SDS011;63319;46.046;17.802;2023-02-02T10:22:45;13.10;;;5.97;;
74791;SDS011;63319;46.046;17.802;2023-02-02T10:25:53;11.07;;;6.32;;
74791;SDS011;63319;46.046;17.802;2023-02-02T10:32:18;11.40;;;5.65;;
74791;SDS011;63319;46.046;17.802;2023-02-02T10:45:16;11.77;;;5.00;;
74791;SDS011;63319;46.046;17.802;2023-02-02T10:48:22;11.70;;;5.50;;
74791;SDS011;63319;46.046;17.802;2023-02-02T10:51:36;11.07;;;5.20;;
74791;SDS011;63319;46.046;17.802;2023-02-02T11:01:22;11.30;;;5.13;;
74791;SDS011;63319;46.046;17.802;2023-02-02T11:04:26;8.65;;;3.88;;
74791;SDS011;63319;46.046;17.802;2023-02-02T11:07:51;8.53;;;4.40;;
74791;SDS011;63319;46.046;17.802;2023-02-02T11:10:55;8.77;;;4.50;;
74791;SDS011;63319;46.046;17.802;2023-02-02T11:17:45;9.20;;;4.13;;
74791;SDS011;63319;46.046;17.802;2023-02-02T11:20:43;9.45;;;4.80;;
74791;SDS011;63319;46.046;17.802;2023-02-02T11:24:10;8.03;;;4.10;;
74791;SDS011;63319;46.046;17.802;2023-02-02T11:27:32;7.25;;;3.67;;
74791;SDS011;63319;46.046;17.802;2023-02-02T11:30:42;7.88;;;4.30;;
74791;SDS011;63319;46.046;17.802;2023-02-02T11:33:49;9.02;;;4.45;;
74791;SDS011;63319;46.046;17.802;2023-02-02T11:36:56;9.88;;;4.20;;
74791;SDS011;63319;46.046;17.802;2023-02-02T11:43:38;8.38;;;3.90;;
74791;SDS011;63319;46.046;17.802;2023-02-02T11:46:52;10.50;;;4.07;;
74791;SDS011;63319;46.046;17.802;2023-02-02T11:50:02;8.82;;;3.90;;
74791;SDS011;63319;46.046;17.802;2023-02-02T11:53:18;10.13;;;4.32;;
74791;SDS011;63319;46.046;17.802;2023-02-02T11:56:51;8.27;;;3.80;;
74791;SDS011;63319;46.046;17.802;2023-02-02T12:03:19;8.85;;;3.90;;
74791;SDS011;63319;46.046;17.802;2023-02-02T12:09:34;8.40;;;4.20;;
74791;SDS011;63319;46.046;17.802;2023-02-02T12:19:08;9.57;;;3.60;;
74791;SDS011;63319;46.046;17.802;2023-02-02T12:22:21;9.10;;;3.83;;
74791;SDS011;63319;46.046;17.802;2023-02-02T12:32:25;7.05;;;3.53;;
74791;SDS011;63319;46.046;17.802;2023-02-02T12:45:54;6.93;;;3.57;;
74791;SDS011;63319;46.046;17.802;2023-02-02T12:56:17;8.77;;;3.72;;
74791;SDS011;63319;46.046;17.802;2023-02-02T13:03:20;7.53;;;3.97;;
74791;SDS011;63319;46.046;17.802;2023-02-02T13:13:32;8.30;;;3.80;;
74791;SDS011;63319;46.046;17.802;2023-02-02T13:16:40;8.15;;;3.70;;
74791;SDS011;63319;46.046;17.802;2023-02-02T13:19:53;8.13;;;3.40;;
74791;SDS011;63319;46.046;17.802;2023-02-02T13:23:27;7.13;;;3.50;;
74791;SDS011;63319;46.046;17.802;2023-02-02T13:26:31;7.60;;;3.60;;
74791;SDS011;63319;46.046;17.802;2023-02-02T13:29:43;8.73;;;3.65;;
74791;SDS011;63319;46.046;17.802;2023-02-02T13:32:52;8.15;;;3.65;;
74791;SDS011;63319;46.046;17.802;2023-02-02T13:36:01;7.87;;;3.63;;
74791;SDS011;63319;46.046;17.802;2023-02-02T13:39:13;7.60;;;3.70;;
74791;SDS011;63319;46.046;17.802;2023-02-02T13:42:28;7.55;;;3.38;;
74791;SDS011;63319;46.046;17.802;2023-02-02T13:49:29;7.43;;;3.88;;
74791;SDS011;63319;46.046;17.802;2023-02-02T13:56:08;7.50;;;3.42;;
74791;SDS011;63319;46.046;17.802;2023-02-02T14:05:43;9.70;;;3.47;;
74791;SDS011;63319;46.046;17.802;2023-02-02T14:09:03;9.77;;;3.40;;
74791;SDS011;63319;46.046;17.802;2023-02-02T14:12:07;9.93;;;3.83;;
74791;SDS011;63319;46.046;17.802;2023-02-02T14:15:12;14.05;;;4.05;;
74791;SDS011;63319;46.046;17.802;2023-02-02T14:18:23;11.48;;;4.30;;
74791;SDS011;63319;46.046;17.802;2023-02-02T14:22:15;9.82;;;3.72;;
74791;SDS011;63319;46.046;17.802;2023-02-02T14:28:42;13.68;;;3.75;;
74791;SDS011;63319;46.046;17.802;2023-02-02T14:31:51;10.38;;;3.75;;
74791;SDS011;63319;46.046;17.802;2023-02-02T14:38:12;12.27;;;3.88;;
74791;SDS011;63319;46.046;17.802;2023-02-02T14:41:36;15.17;;;4.37;;
74791;SDS011;63319;46.046;17.802;2023-02-02T14:48:22;14.10;;;4.50;;
74791;SDS011;63319;46.046;17.802;2023-02-02T14:51:28;14.43;;;4.30;;
74791;SDS011;63319;46.046;17.802;2023-02-02T14:54:37;15.05;;;5.03;;
74791;SDS011;63319;46.046;17.802;2023-02-02T14:57:43;16.10;;;4.03;;
74791;SDS011;63319;46.046;17.802;2023-02-02T15:00:47;15.20;;;4.13;;
74791;SDS011;63319;46.046;17.802;2023-02-02T15:18:48;9.65;;;4.13;;
74791;SDS011;63319;46.046;17.802;2023-02-02T15:21:45;13.35;;;4.30;;
74791;SDS011;63319;46.046;17.802;2023-02-02T15:24:50;11.68;;;3.67;;
74791;SDS011;63319;46.046;17.802;2023-02-02T15:31:43;9.20;;;4.07;;
74791;SDS011;63319;46.046;17.802;2023-02-02T15:34:49;9.85;;;4.13;;
74791;SDS011;63319;46.046;17.802;2023-02-02T15:37:59;11.23;;;4.05;;
74791;SDS011;63319;46.046;17.802;2023-02-02T15:41:06;11.50;;;4.07;;
74791;SDS011;63319;46.046;17.802;2023-02-02T15:44:20;9.70;;;4.35;;
74791;SDS011;63319;46.046;17.802;2023-02-02T15:47:32;12.50;;;4.50;;
74791;SDS011;63319;46.046;17.802;2023-02-02T15:50:37;10.45;;;3.78;;
74791;SDS011;63319;46.046;17.802;2023-02-02T15:53:48;10.88;;;4.25;;
74791;SDS011;63319;46.046;17.802;2023-02-02T15:56:53;9.52;;;4.07;;
74791;SDS011;63319;46.046;17.802;2023-02-02T15:59:57;11.60;;;4.13;;
74791;SDS011;63319;46.046;17.802;2023-02-02T16:03:06;8.30;;;3.40;;
74791;SDS011;63319;46.046;17.802;2023-02-02T16:06:21;9.35;;;3.70;;
74791;SDS011;63319;46.046;17.802;2023-02-02T16:09:25;10.85;;;3.55;;
74791;SDS011;63319;46.046;17.802;2023-02-02T16:12:29;9.63;;;3.95;;
74791;SDS011;63319;46.046;17.802;2023-02-02T16:15:32;9.45;;;4.05;;
74791;SDS011;63319;46.046;17.802;2023-02-02T16:18:35;9.23;;;3.90;;
74791;SDS011;63319;46.046;17.802;2023-02-02T16:21:59;9.23;;;3.83;;
74791;SDS011;63319;46.046;17.802;2023-02-02T16:25:09;10.90;;;3.85;;
74791;SDS011;63319;46.046;17.802;2023-02-02T16:28:17;10.80;;;3.55;;
74791;SDS011;63319;46.046;17.802;2023-02-02T16:31:23;10.15;;;4.30;;
74791;SDS011;63319;46.046;17.802;2023-02-02T16:37:50;7.38;;;3.63;;
74791;SDS011;63319;46.046;17.802;2023-02-02T16:41:23;10.68;;;3.85;;
74791;SDS011;63319;46.046;17.802;2023-02-02T16:44:35;8.60;;;3.95;;
74791;SDS011;63319;46.046;17.802;2023-02-02T16:47:40;13.55;;;3.92;;
74791;SDS011;63319;46.046;17.802;2023-02-02T16:50:43;9.60;;;3.90;;
74791;SDS011;63319;46.046;17.802;2023-02-02T16:56:59;9.25;;;3.92;;
74791;SDS011;63319;46.046;17.802;2023-02-02T17:00:05;9.02;;;4.03;;
74791;SDS011;63319;46.046;17.802;2023-02-02T17:03:14;10.13;;;4.00;;
74791;SDS011;63319;46.046;17.802;2023-02-02T17:06:28;8.10;;;2.90;;
74791;SDS011;63319;46.046;17.802;2023-02-02T17:09:47;6.85;;;3.47;;
74791;SDS011;63319;46.046;17.802;2023-02-02T17:12:54;11.43;;;4.03;;
74791;SDS011;63319;46.046;17.802;2023-02-02T17:15:59;9.45;;;3.65;;
74791;SDS011;63319;46.046;17.802;2023-02-02T17:19:02;8.57;;;3.58;;
74791;SDS011;63319;46.046;17.802;2023-02-02T17:22:06;8.47;;;3.07;;
74791;SDS011;63319;46.046;17.802;2023-02-02T17:25:39;8.15;;;3.15;;
74791;SDS011;63319;46.046;17.802;2023-02-02T17:28:44;11.45;;;3.85;;
74791;SDS011;63319;46.046;17.802;2023-02-02T17:31:48;8.23;;;3.30;;
74791;SDS011;63319;46.046;17.802;2023-02-02T17:34:57;8.20;;;3.58;;
74791;SDS011;63319;46.046;17.802;2023-02-02T17:38:03;7.57;;;3.33;;
74791;SDS011;63319;46.046;17.802;2023-02-02T17:41:08;7.53;;;3.58;;
74791;SDS011;63319;46.046;17.802;2023-02-02T17:44:14;7.75;;;4.07;;
74791;SDS011;63319;46.046;17.802;2023-02-02T17:47:17;12.60;;;3.33;;
74791;SDS011;63319;46.046;17.802;2023-02-02T17:50:21;7.45;;;3.20;;
74791;SDS011;63319;46.046;17.802;2023-02-02T17:53:26;7.90;;;3.53;;
74791;SDS011;63319;46.046;17.802;2023-02-02T17:56:37;9.45;;;3.40;;
74791;SDS011;63319;46.046;17.802;2023-02-02T17:59:40;8.00;;;3.45;;
74791;SDS011;63319;46.046;17.802;2023-02-02T18:02:44;9.48;;;3.88;;
74791;SDS011;63319;46.046;17.802;2023-02-02T18:05:49;8.45;;;3.53;;
74791;SDS011;63319;46.046;17.802;2023-02-02T18:08:54;7.73;;;3.03;;
74791;SDS011;63319;46.046;17.802;2023-02-02T18:11:57;8.57;;;3.05;;
74791;SDS011;63319;46.046;17.802;2023-02-02T18:15:02;7.95;;;2.80;;
74791;SDS011;63319;46.046;17.802;2023-02-02T18:18:10;8.00;;;3.50;;
74791;SDS011;63319;46.046;17.802;2023-02-02T18:21:14;7.82;;;3.60;;
74791;SDS011;63319;46.046;17.802;2023-02-02T18:24:17;8.37;;;3.17;;
74791;SDS011;63319;46.046;17.802;2023-02-02T18:27:21;8.30;;;3.35;;
74791;SDS011;63319;46.046;17.802;2023-02-02T18:30:25;7.45;;;3.45;;
74791;SDS011;63319;46.046;17.802;2023-02-02T18:33:34;6.88;;;3.00;;
74791;SDS011;63319;46.046;17.802;2023-02-02T18:36:39;7.65;;;2.75;;
74791;SDS011;63319;46.046;17.802;2023-02-02T18:39:42;7.23;;;2.90;;
74791;SDS011;63319;46.046;17.802;2023-02-02T18:42:47;9.63;;;3.55;;
74791;SDS011;63319;46.046;17.802;2023-02-02T18:45:58;8.73;;;3.20;;
74791;SDS011;63319;46.046;17.802;2023-02-02T18:49:04;7.88;;;3.50;;
74791;SDS011;63319;46.046;17.802;2023-02-02T18:52:08;6.80;;;3.22;;
74791;SDS011;63319;46.046;17.802;2023-02-02T18:55:12;9.67;;;3.30;;
74791;SDS011;63319;46.046;17.802;2023-02-02T18:58:15;9.43;;;3.20;;
74791;SDS011;63319;46.046;17.802;2023-02-02T19:01:19;6.60;;;2.90;;
74791;SDS011;63319;46.046;17.802;2023-02-02T19:04:23;7.30;;;3.28;;
74791;SDS011;63319;46.046;17.802;2023-02-02T19:07:27;8.57;;;3.03;;
74791;SDS011;63319;46.046;17.802;2023-02-02T19:10:50;8.27;;;2.93;;
74791;SDS011;63319;46.046;17.802;2023-02-02T19:14:00;6.18;;;2.70;;
74791;SDS011;63319;46.046;17.802;2023-02-02T19:17:25;7.55;;;3.08;;
74791;SDS011;63319;46.046;17.802;2023-02-02T19:20:30;7.68;;;3.45;;
74791;SDS011;63319;46.046;17.802;2023-02-02T19:23:34;9.45;;;3.22;;
74791;SDS011;63319;46.046;17.802;2023-02-02T19:26:41;6.50;;;2.63;;
74791;SDS011;63319;46.046;17.802;2023-02-02T19:29:50;7.70;;;2.97;;
74791;SDS011;63319;46.046;17.802;2023-02-02T19:32:57;7.25;;;3.10;;
74791;SDS011;63319;46.046;17.802;2023-02-02T19:36:05;7.55;;;2.88;;
74791;SDS011;63319;46.046;17.802;2023-02-02T19:39:19;6.82;;;3.00;;
74791;SDS011;63319;46.046;17.802;2023-02-02T19:42:27;6.47;;;2.77;;
74791;SDS011;63319;46.046;17.802;2023-02-02T19:45:39;7.30;;;2.90;;
74791;SDS011;63319;46.046;17.802;2023-02-02T19:48:43;8.55;;;3.40;;
74791;SDS011;63319;46.046;17.802;2023-02-02T19:51:54;9.57;;;3.63;;
74791;SDS011;63319;46.046;17.802;2023-02-02T19:55:00;7.35;;;2.67;;
74791;SDS011;63319;46.046;17.802;2023-02-02T19:58:12;6.70;;;2.90;;
74791;SDS011;63319;46.046;17.802;2023-02-02T20:01:21;7.78;;;2.58;;
74791;SDS011;63319;46.046;17.802;2023-02-02T20:04:29;7.45;;;2.50;;
74791;SDS011;63319;46.046;17.802;2023-02-02T20:07:36;6.75;;;2.65;;
74791;SDS011;63319;46.046;17.802;2023-02-02T20:10:42;6.13;;;2.63;;
74791;SDS011;63319;46.046;17.802;2023-02-02T20:13:46;5.90;;;2.83;;
74791;SDS011;63319;46.046;17.802;2023-02-02T20:16:51;7.80;;;2.83;;
74791;SDS011;63319;46.046;17.802;2023-02-02T20:19:58;6.82;;;2.70;;
74791;SDS011;63319;46.046;17.802;2023-02-02T20:23:14;6.38;;;2.60;;
74791;SDS011;63319;46.046;17.802;2023-02-02T20:26:34;5.15;;;2.50;;
74791;SDS011;63319;46.046;17.802;2023-02-02T20:29:40;7.73;;;2.60;;
74791;SDS011;63319;46.046;17.802;2023-02-02T20:32:49;6.28;;;2.75;;
74791;SDS011;63319;46.046;17.802;2023-02-02T20:35:57;5.97;;;2.83;;
74791;SDS011;63319;46.046;17.802;2023-02-02T20:42:31;6.72;;;2.70;;
74791;SDS011;63319;46.046;17.802;2023-02-02T20:45:35;5.40;;;2.00;;
74791;SDS011;63319;46.046;17.802;2023-02-02T20:48:40;8.40;;;2.78;;
74791;SDS011;63319;46.046;17.802;2023-02-02T20:51:44;8.45;;;2.75;;
74791;SDS011;63319;46.046;17.802;2023-02-02T20:54:48;7.55;;;2.80;;
74791;SDS011;63319;46.046;17.802;2023-02-02T20:57:54;5.60;;;2.50;;
74791;SDS011;63319;46.046;17.802;2023-02-02T21:00:57;6.67;;;2.80;;